Time;durP1;ratioP1;P1;durP2;ratioP2;P2;SDS_P1;SDS_P2;PMS_P1;PMS_P2;Temp;Humidity;BMP_temperature;BMP_pressure;BME280_temperature;BME280_humidity;BME280_pressure;Samples;Min_cycle;Max_cycle;Signal;HPM_P1;HPM_P2
2021/11/12 00:12:22;;;;;;;157.95;72.22;;;;;;;2.01;100.00;99807.69;2070988;28;20227;-76
2021/11/12 00:13:27;;;;;;;152.65;69.45;;;;;;;2.00;100.00;99792.91;2076232;28;20659;-76
2021/11/12 00:14:30;;;;;;;142.65;68.90;;;;;;;1.97;100.00;99796.78;2077937;28;20600;-77
2021/11/12 00:15:34;;;;;;;157.38;72.35;;;;;;;1.94;100.00;99799.06;2078227;28;20231;-77
2021/11/12 00:16:36;;;;;;;158.93;72.78;;;;;;;1.95;100.00;99800.66;2078597;28;20231;-77
2021/11/12 00:17:38;;;;;;;159.15;71.60;;;;;;;1.95;100.00;99798.03;2078388;28;20256;-75
2021/11/12 00:18:40;;;;;;;150.30;71.55;;;;;;;1.93;100.00;99802.72;2077996;28;20223;-76
2021/11/12 00:19:44;;;;;;;155.45;73.80;;;;;;;1.90;100.00;99792.63;2078156;28;20225;-77
2021/11/12 00:20:47;;;;;;;156.77;72.88;;;;;;;1.88;100.00;99794.66;2094328;28;20604;-75
2021/11/12 00:21:48;;;;;;;157.43;72.13;;;;;;;1.88;100.00;99797.31;2094216;28;20272;-77
2021/11/12 00:22:51;;;;;;;154.03;74.60;;;;;;;1.84;100.00;99796.16;2078047;28;20273;-76
2021/11/12 00:23:52;;;;;;;147.73;69.40;;;;;;;1.84;100.00;99790.88;2077514;28;20227;-77
2021/11/12 00:24:56;;;;;;;162.23;73.53;;;;;;;1.82;100.00;99795.53;2094450;28;20734;-76
2021/11/12 00:25:57;;;;;;;159.38;74.97;;;;;;;1.82;100.00;99796.34;2085915;28;20325;-76
2021/11/12 00:27:01;;;;;;;162.07;75.63;;;;;;;1.81;100.00;99794.75;2069516;28;20249;-77
2021/11/12 00:28:04;;;;;;;162.98;75.20;;;;;;;1.84;100.00;99798.78;2078247;28;20219;-77
2021/11/12 00:29:10;;;;;;;158.20;73.07;;;;;;;1.81;100.00;99793.94;2094291;28;20225;-77
2021/11/12 00:30:24;;;;;;;148.38;73.53;;;;;;;1.85;100.00;99795.91;2085157;28;20247;-76
2021/11/12 00:31:34;;;;;;;158.95;72.40;;;;;;;1.82;100.00;99798.97;2071213;28;20230;-76
2021/11/12 00:32:45;;;;;;;156.93;71.68;;;;;;;1.80;100.00;99798.41;2078317;28;20219;-76
2021/11/12 00:35:15;;;;;;;164.90;73.43;;;;;;;1.75;100.00;99797.47;2078506;28;20561;-77
2021/11/12 00:36:27;;;;;;;160.57;73.60;;;;;;;1.78;100.00;99797.03;2072315;28;20220;-76
2021/11/12 00:37:43;;;;;;;161.35;75.63;;;;;;;1.79;100.00;99798.63;2074071;28;20232;-76
2021/11/12 00:38:47;;;;;;;159.07;75.75;;;;;;;1.75;100.00;99792.22;2084118;28;20268;-77
2021/11/12 00:39:54;;;;;;;162.02;73.75;;;;;;;1.75;100.00;99794.84;2078860;28;20228;-77
2021/11/12 00:40:59;;;;;;;167.52;76.25;;;;;;;1.75;100.00;99797.47;2073686;28;20687;-76
2021/11/12 00:42:08;;;;;;;174.75;78.05;;;;;;;1.76;100.00;99794.63;2070665;28;20700;-77
2021/11/12 00:43:17;;;;;;;165.38;75.63;;;;;;;1.77;100.00;99795.41;2077650;28;20603;-76
2021/11/12 00:44:24;;;;;;;159.98;73.57;;;;;;;1.74;100.00;99798.47;2077965;28;20215;-77
2021/11/12 00:45:26;;;;;;;161.45;76.15;;;;;;;1.74;100.00;99806.34;2071167;28;20254;-77
2021/11/12 00:46:35;;;;;;;169.00;77.97;;;;;;;1.74;100.00;99804.56;2070615;28;20697;-76
2021/11/12 00:47:46;;;;;;;171.38;75.82;;;;;;;1.75;100.00;99805.34;2076792;28;20277;-77
2021/11/12 00:48:52;;;;;;;172.05;76.68;;;;;;;1.75;100.00;99805.34;2094255;28;20229;-76
2021/11/12 00:50:23;;;;;;;160.20;75.15;;;;;;;1.72;100.00;99790.81;2093293;28;20222;-76
2021/11/12 00:51:25;;;;;;;168.68;74.90;;;;;;;1.76;100.00;99799.06;2078142;28;20253;-74
2021/11/12 00:52:41;;;;;;;163.98;75.88;;;;;;;1.70;100.00;99791.03;2077991;28;20231;-77
2021/11/12 00:53:51;;;;;;;177.23;78.97;;;;;;;1.76;100.00;99797.25;2077748;28;20260;-76
2021/11/12 00:54:55;;;;;;;162.20;75.95;;;;;;;1.74;100.00;99796.66;2072526;28;20227;-77
2021/11/12 00:55:56;;;;;;;165.20;75.70;;;;;;;1.74;100.00;99799.31;2076102;28;20408;-76
2021/11/12 00:56:58;;;;;;;167.45;75.60;;;;;;;1.73;100.00;99796.88;2069829;28;20236;-77
2021/11/12 00:57:58;;;;;;;167.05;77.07;;;;;;;1.73;100.00;99799.50;2086040;28;20245;-74
2021/11/12 00:59:02;;;;;;;172.73;76.97;;;;;;;1.70;100.00;99801.53;2094547;28;20288;-75
2021/11/12 01:00:06;;;;;;;165.30;76.32;;;;;;;1.68;100.00;99798.34;2078671;28;20227;-77
2021/11/12 01:01:08;;;;;;;163.77;76.57;;;;;;;1.66;100.00;99794.31;2077451;28;20231;-77
2021/11/12 01:02:10;;;;;;;167.80;75.03;;;;;;;1.66;100.00;99797.75;2069710;28;20227;-77
2021/11/12 01:03:18;;;;;;;165.85;74.78;;;;;;;1.65;100.00;99796.16;2074039;28;20238;-76
2021/11/12 01:04:23;;;;;;;170.57;74.70;;;;;;;1.65;100.00;99796.16;2071551;28;20725;-77
2021/11/12 01:05:29;;;;;;;164.88;74.68;;;;;;;1.67;100.00;99802.00;2069682;28;20224;-75
2021/11/12 01:07:00;;;;;;;163.18;75.53;;;;;;;1.66;100.00;99799.59;2079186;28;20219;-76
2021/11/12 01:08:01;;;;;;;159.45;73.05;;;;;;;1.64;100.00;99802.41;2089084;28;20236;-77
2021/11/12 01:09:07;;;;;;;154.77;74.03;;;;;;;1.67;100.00;99799.38;2079643;28;20223;-77
2021/11/12 01:10:10;;;;;;;157.98;72.72;;;;;;;1.66;100.00;99794.31;2065151;28;20229;-76
2021/11/12 01:11:13;;;;;;;167.93;72.88;;;;;;;1.68;100.00;99800.16;2071397;28;20227;-77
2021/11/12 01:12:15;;;;;;;158.65;73.03;;;;;;;1.65;100.00;99793.53;2072144;28;20554;-77
2021/11/12 01:13:16;;;;;;;156.38;74.18;;;;;;;1.69;100.00;99799.13;2071259;28;20220;-77
2021/11/12 01:14:20;;;;;;;161.27;75.27;;;;;;;1.69;100.00;99804.41;2071431;28;20357;-77
2021/11/12 01:15:22;;;;;;;161.82;76.07;;;;;;;1.67;100.00;99802.00;2071371;28;20250;-77
2021/11/12 01:16:24;;;;;;;166.10;73.30;;;;;;;1.70;100.00;99801.53;2068804;28;20240;-76
2021/11/12 01:17:25;;;;;;;158.43;74.68;;;;;;;1.69;100.00;99804.41;2071248;28;20591;-76
2021/11/12 01:18:27;;;;;;;171.32;77.72;;;;;;;1.73;100.00;99799.50;2087522;28;20681;-77
2021/11/12 01:19:29;;;;;;;168.63;77.72;;;;;;;1.73;100.00;99800.28;2095909;28;20221;-77
2021/11/12 01:20:30;;;;;;;151.27;71.30;;;;;;;1.75;100.00;99800.91;2080002;28;20223;-77
2021/11/12 01:21:32;;;;;;;151.00;71.13;;;;;;;1.73;100.00;99794.22;2079280;28;20302;-77
2021/11/12 01:22:33;;;;;;;142.15;70.00;;;;;;;1.72;100.00;99797.88;2071173;28;20651;-75
2021/11/12 01:23:39;;;;;;;141.85;70.50;;;;;;;1.70;100.00;99798.91;2079297;28;20227;-77
2021/11/12 01:24:39;;;;;;;139.27;68.95;;;;;;;1.72;100.00;99797.88;2079458;28;20235;-76
2021/11/12 01:25:42;;;;;;;147.47;71.97;;;;;;;1.69;100.00;99789.41;2080091;28;20287;-77
2021/11/12 01:26:43;;;;;;;139.80;69.15;;;;;;;1.74;100.00;99796.66;2095721;28;20218;-76
2021/11/12 01:27:45;;;;;;;145.90;71.00;;;;;;;1.76;100.00;99801.69;2087518;28;20664;-77
2021/11/12 01:28:46;;;;;;;161.50;73.90;;;;;;;1.78;100.00;99794.38;2087612;28;20766;-77
2021/11/12 01:29:48;;;;;;;158.95;75.47;;;;;;;1.80;100.00;99790.50;2087617;28;20651;-76
2021/11/12 01:30:54;;;;;;;166.68;76.38;;;;;;;1.82;100.00;99795.53;2079343;28;20215;-77
2021/11/12 01:31:58;;;;;;;161.82;76.38;;;;;;;1.86;100.00;99796.72;2078867;28;20269;-77
2021/11/12 01:32:58;;;;;;;169.50;79.82;;;;;;;1.88;100.00;99802.56;2071638;28;20227;-76
2021/11/12 01:34:06;;;;;;;161.07;74.87;;;;;;;1.91;100.00;99802.09;2079383;28;20697;-77
2021/11/12 01:35:10;;;;;;;169.10;78.00;;;;;;;1.94;100.00;99813.00;2072679;28;20235;-74
2021/11/12 01:36:27;;;;;;;169.95;75.85;;;;;;;1.96;100.00;99807.53;2070767;28;20232;-76
2021/11/12 01:37:29;;;;;;;161.35;75.53;;;;;;;1.98;100.00;99808.09;2078269;28;20223;-77
2021/11/12 01:38:31;;;;;;;161.05;75.20;;;;;;;1.99;100.00;99812.34;2079506;28;20262;-76
2021/11/12 01:39:32;;;;;;;168.60;78.55;;;;;;;2.03;100.00;99810.88;2079131;28;20223;-76
2021/11/12 01:40:35;;;;;;;163.67;77.97;;;;;;;2.05;100.00;99816.72;2095670;28;20311;-77
2021/11/12 01:41:39;;;;;;;159.55;77.20;;;;;;;2.03;100.00;99810.88;2095600;28;20222;-77
2021/11/12 01:43:04;;;;;;;169.43;76.78;;;;;;;2.05;100.00;99814.09;2079620;28;20227;-76
2021/11/12 01:44:09;;;;;;;172.63;77.55;;;;;;;2.06;100.00;99807.00;2071560;28;20231;-76
2021/11/12 01:45:11;;;;;;;169.68;77.68;;;;;;;2.08;100.00;99803.09;2076903;28;20227;-77
2021/11/12 01:46:26;;;;;;;163.70;75.78;;;;;;;2.07;100.00;99801.50;2079059;28;21235;-77
2021/11/12 01:47:34;;;;;;;164.65;76.88;;;;;;;2.11;100.00;99805.31;2079267;28;20235;-76
2021/11/12 01:50:11;;;;;;;170.65;76.90;;;;;;;2.13;100.00;99807.72;2066165;28;20311;-77
2021/11/12 01:51:23;;;;;;;168.88;75.53;;;;;;;2.13;100.00;99805.91;2070281;28;20227;-76
2021/11/12 01:52:33;;;;;;;177.07;78.70;;;;;;;2.12;100.00;99800.84;2066372;28;20307;-76
2021/11/12 01:53:37;;;;;;;168.50;76.65;;;;;;;2.12;100.00;99801.66;2072020;28;20255;-77
2021/11/12 01:54:54;;;;;;;170.95;76.35;;;;;;;2.14;100.00;99804.88;2078971;28;20227;-76
2021/11/12 01:58:50;;;;;;;166.20;77.00;;;;;;;2.21;100.00;99800.31;2070778;28;20224;-77
2021/11/12 01:59:52;;;;;;;160.82;74.75;;;;;;;2.24;100.00;99807.75;2079084;28;20227;-77
2021/11/12 02:00:54;;;;;;;167.88;74.53;;;;;;;2.24;100.00;99804.34;2072273;28;20284;-76
2021/11/12 02:01:59;;;;;;;164.18;76.03;;;;;;;2.26;100.00;99805.72;2070717;28;20709;-77
2021/11/12 02:03:01;;;;;;;157.77;74.78;;;;;;;2.24;100.00;99807.75;2070859;28;20223;-76
2021/11/12 02:04:02;;;;;;;155.13;73.88;;;;;;;2.29;100.00;99804.47;2070847;28;20308;-77
2021/11/12 02:05:05;;;;;;;158.50;74.65;;;;;;;2.30;100.00;99808.72;2070979;28;20247;-77
2021/11/12 02:06:07;;;;;;;154.18;72.82;;;;;;;2.36;100.00;99802.56;2070771;28;20232;-76
2021/11/12 02:07:11;;;;;;;153.15;75.15;;;;;;;2.34;100.00;99804.59;2076686;28;20249;-77
2021/11/12 02:08:12;;;;;;;154.88;74.38;;;;;;;2.37;100.00;99812.06;2079236;28;20235;-77
2021/11/12 02:09:17;;;;;;;157.27;74.13;;;;;;;2.36;100.00;99809.66;2087194;28;20268;-77
2021/11/12 02:10:21;;;;;;;154.95;71.55;;;;;;;2.37;100.00;99806.00;2094711;28;20707;-77
2021/11/12 02:11:23;;;;;;;150.95;73.97;;;;;;;2.38;100.00;99799.69;2078647;28;20306;-77
2021/11/12 02:12:33;;;;;;;151.55;73.97;;;;;;;2.42;100.00;99803.47;2079116;28;20231;-77
2021/11/12 02:13:34;;;;;;;160.63;74.65;;;;;;;2.43;100.00;99807.72;2078910;28;20252;-76
2021/11/12 02:14:37;;;;;;;159.23;72.10;;;;;;;2.42;100.00;99806.91;2078979;28;20219;-77
2021/11/12 02:15:40;;;;;;;151.40;71.10;;;;;;;2.42;100.00;99803.47;2079303;28;20219;-76
2021/11/12 02:16:45;;;;;;;154.80;72.38;;;;;;;2.43;100.00;99802.44;2079588;28;20729;-77
2021/11/12 02:17:56;;;;;;;146.20;72.78;;;;;;;2.43;100.00;99794.53;2079685;28;20704;-77
2021/11/12 02:19:00;;;;;;;156.50;72.45;;;;;;;2.44;100.00;99796.19;2071688;28;20228;-77
2021/11/12 02:20:10;;;;;;;153.32;70.93;;;;;;;2.46;100.00;99796.75;2062543;28;20225;-77
2021/11/12 02:21:23;;;;;;;152.90;72.03;;;;;;;2.46;100.00;99796.75;2075231;28;20251;-76
2021/11/12 02:22:28;;;;;;;149.63;72.63;;;;;;;2.49;100.00;99798.94;2079370;28;20314;-77
2021/11/12 02:23:33;;;;;;;145.35;69.35;;;;;;;2.48;100.00;99795.50;2079565;28;20219;-77
2021/11/12 02:24:38;;;;;;;152.82;72.88;;;;;;;2.48;100.00;99799.97;2095275;28;20309;-77
2021/11/12 02:25:42;;;;;;;151.35;73.03;;;;;;;2.49;100.00;99804.19;2087431;28;20242;-77
2021/11/12 02:26:47;;;;;;;146.75;71.05;;;;;;;2.48;100.00;99795.50;2070675;28;20224;-77
2021/11/12 02:27:52;;;;;;;148.35;70.47;;;;;;;2.44;100.00;99791.72;2070797;28;20224;-77
2021/11/12 02:28:55;;;;;;;148.95;70.05;;;;;;;2.49;100.00;99789.19;2076954;28;20681;-76
2021/11/12 02:29:57;;;;;;;145.77;69.00;;;;;;;2.49;100.00;99789.19;2078814;28;20249;-77
2021/11/12 02:30:58;;;;;;;149.90;72.72;;;;;;;2.49;100.00;99789.19;2079638;28;20227;-77
2021/11/12 02:32:00;;;;;;;146.75;71.88;;;;;;;2.52;100.00;99783.50;2078805;28;20249;-77
2021/11/12 02:33:04;;;;;;;149.25;71.90;;;;;;;2.53;100.00;99789.56;2078922;28;20231;-76
2021/11/12 02:34:10;;;;;;;149.52;71.97;;;;;;;2.52;100.00;99787.97;2079567;28;20224;-76
2021/11/12 02:35:10;;;;;;;155.63;71.55;;;;;;;2.53;100.00;99789.56;2079268;28;20242;-77
2021/11/12 02:36:17;;;;;;;148.23;71.73;;;;;;;2.54;100.00;99791.16;2079486;28;20684;-76
2021/11/12 02:37:18;;;;;;;153.35;72.05;;;;;;;2.49;100.00;99780.50;2079516;28;20705;-76
2021/11/12 02:38:20;;;;;;;147.05;71.32;;;;;;;2.50;100.00;99787.34;2079560;28;20223;-76
2021/11/12 02:39:21;;;;;;;147.18;71.93;;;;;;;2.49;100.00;99785.75;2079470;28;20223;-76
2021/11/12 02:40:24;;;;;;;150.80;70.22;;;;;;;2.48;100.00;99786.78;2094774;28;20226;-76
2021/11/12 02:41:25;;;;;;;143.85;70.45;;;;;;;2.47;100.00;99779.91;2094994;28;20674;-76
2021/11/12 02:42:27;;;;;;;141.75;70.65;;;;;;;2.49;100.00;99789.19;2079335;28;20228;-76
2021/11/12 02:43:28;;;;;;;159.68;72.35;;;;;;;2.46;100.00;99781.75;2079485;28;20277;-76
2021/11/12 02:44:35;;;;;;;142.27;70.37;;;;;;;2.47;100.00;99782.56;2078877;28;20325;-76
2021/11/12 02:45:37;;;;;;;141.80;71.20;;;;;;;2.47;100.00;99782.56;2078807;28;20223;-76
2021/11/12 02:46:40;;;;;;;148.40;71.60;;;;;;;2.49;100.00;99785.75;2079042;28;20309;-76
2021/11/12 02:47:43;;;;;;;144.90;73.15;;;;;;;2.50;100.00;99796.06;2079519;28;20706;-76
2021/11/12 02:48:46;;;;;;;151.52;71.32;;;;;;;2.49;100.00;99789.19;2079410;28;20262;-76
2021/11/12 02:49:47;;;;;;;148.02;70.90;;;;;;;2.47;100.00;99782.56;2095151;28;20218;-76
2021/11/12 02:50:49;;;;;;;144.05;71.97;;;;;;;2.46;100.00;99783.59;2095148;28;20218;-76
2021/11/12 02:51:51;;;;;;;146.35;71.00;;;;;;;2.45;100.00;99788.06;2094878;28;20771;-76
2021/11/12 02:52:58;;;;;;;152.43;68.85;;;;;;;2.48;100.00;99786.78;2094188;28;20252;-76
2021/11/12 02:54:00;;;;;;;150.90;70.70;;;;;;;2.44;100.00;99781.19;2078835;28;20223;-76
2021/11/12 02:55:05;;;;;;;146.00;69.72;;;;;;;2.46;100.00;99780.94;2070715;28;20220;-75
2021/11/12 02:56:10;;;;;;;151.40;70.40;;;;;;;2.45;100.00;99776.72;2070616;28;20236;-75
2021/11/12 02:57:12;;;;;;;146.73;69.55;;;;;;;2.48;100.00;99778.88;2086945;28;20233;-75
2021/11/12 02:58:13;;;;;;;149.32;69.68;;;;;;;2.50;100.00;99774.19;2094901;28;20230;-75
2021/11/12 02:59:15;;;;;;;147.05;70.45;;;;;;;2.48;100.00;99781.53;2079045;28;20227;-75
2021/11/12 03:00:21;;;;;;;149.13;70.45;;;;;;;2.51;100.00;99783.69;2079492;28;20215;-75
2021/11/12 03:01:24;;;;;;;142.18;69.55;;;;;;;2.50;100.00;99780.25;2076261;28;20771;-73
2021/11/12 03:02:25;;;;;;;147.32;70.10;;;;;;;2.49;100.00;99777.84;2078689;28;20285;-75
2021/11/12 03:03:28;;;;;;;150.60;71.40;;;;;;;2.51;100.00;99775.78;2078553;28;20223;-75
2021/11/12 03:04:30;;;;;;;148.65;70.35;;;;;;;2.52;100.00;99786.13;2078724;28;20239;-76
2021/11/12 03:05:32;;;;;;;148.15;69.30;;;;;;;2.53;100.00;99779.81;2086761;28;20221;-75
2021/11/12 03:06:36;;;;;;;146.50;71.65;;;;;;;2.55;100.00;99782.22;2095034;28;20248;-77
2021/11/12 03:07:40;;;;;;;141.05;70.30;;;;;;;2.54;100.00;99783.25;2078198;28;20698;-75
2021/11/12 03:08:43;;;;;;;142.57;70.72;;;;;;;2.62;100.00;99782.13;2078597;28;20701;-76
2021/11/12 03:09:44;;;;;;;150.52;72.57;;;;;;;2.60;100.00;99782.34;2079346;28;20223;-76
2021/11/12 03:10:46;;;;;;;149.03;70.67;;;;;;;2.60;100.00;99782.34;2078653;28;20227;-75
2021/11/12 03:11:47;;;;;;;148.30;70.53;;;;;;;2.60;100.00;99781.53;2078733;28;20224;-76
2021/11/12 03:12:48;;;;;;;137.87;68.23;;;;;;;2.61;100.00;99781.34;2078619;28;20219;-77
2021/11/12 03:13:50;;;;;;;144.38;69.68;;;;;;;2.60;100.00;99781.53;2078481;28;20611;-76
2021/11/12 03:14:53;;;;;;;129.10;67.68;;;;;;;2.63;100.00;99778.47;2078300;28;20243;-77
2021/11/12 03:15:55;;;;;;;136.45;66.28;;;;;;;2.63;100.00;99784.53;2094189;28;20246;-75
2021/11/12 03:16:59;;;;;;;139.63;67.80;;;;;;;2.62;100.00;99777.69;2094394;28;20728;-75
2021/11/12 03:18:00;;;;;;;141.13;69.43;;;;;;;2.64;100.00;99786.16;2078870;28;20306;-76
2021/11/12 03:19:03;;;;;;;142.30;68.03;;;;;;;2.64;100.00;99780.88;2078302;28;20231;-77
2021/11/12 03:20:04;;;;;;;139.18;67.60;;;;;;;2.67;100.00;99780.41;2070397;28;20231;-76
2021/11/12 03:21:08;;;;;;;142.73;68.32;;;;;;;2.66;100.00;99784.09;2078475;28;20223;-76
2021/11/12 03:22:15;;;;;;;144.32;69.10;;;;;;;2.65;100.00;99777.22;2078567;28;20227;-75
2021/11/12 03:23:21;;;;;;;147.52;67.97;;;;;;;2.67;100.00;99776.97;2078360;28;20564;-75
2021/11/12 03:24:25;;;;;;;146.63;66.95;;;;;;;2.65;100.00;99777.22;2078046;28;20317;-74
2021/11/12 03:25:33;;;;;;;138.63;68.30;;;;;;;2.66;100.00;99781.44;2079011;28;20734;-75
2021/11/12 03:26:39;;;;;;;137.60;66.30;;;;;;;2.65;100.00;99786.94;2077896;28;20219;-76
2021/11/12 03:27:47;;;;;;;140.02;66.70;;;;;;;2.66;100.00;99785.91;2070755;28;20306;-76
2021/11/12 03:29:12;;;;;;;138.73;67.88;;;;;;;2.66;100.00;99778.00;2078467;28;20251;-76
2021/11/12 03:30:45;;;;;;;141.20;69.00;;;;;;;2.62;100.00;99787.41;2078511;28;20223;-76
2021/11/12 03:59:57;;;;;;;147.70;67.53;;;;;;;2.77;100.00;99771.94;2077555;28;20219;-76
2021/11/12 04:01:31;;;;;;;146.73;68.25;;;;;;;2.82;100.00;99769.44;2078475;28;20783;-76
2021/11/12 04:02:30;;;;;;;151.43;68.28;;;;;;;2.79;100.00;99770.72;2077939;28;20357;-76
2021/11/12 04:03:39;;;;;;;143.57;67.63;;;;;;;2.80;100.00;99774.94;2077968;28;20251;-76
2021/11/12 04:04:48;;;;;;;137.50;65.90;;;;;;;2.81;100.00;99770.47;2078483;28;20732;-76
2021/11/12 04:07:20;;;;;;;133.50;66.20;;;;;;;2.81;100.00;99773.13;2078338;28;20301;-75
2021/11/12 04:17:58;;;;;;;141.18;66.07;;;;;;;2.83;100.00;99784.22;2071733;28;20249;-75
2021/11/12 04:19:25;;;;;;;141.45;66.18;;;;;;;2.82;100.00;99788.69;2077547;28;20242;-76
2021/11/12 04:22:06;;;;;;;133.77;64.68;;;;;;;2.83;100.00;99792.94;2106293;27;20632;-74
2021/11/12 04:41:21;;;;;;;146.80;66.38;;;;;;;2.84;100.00;99785.81;2093804;28;20232;-75
2021/11/12 04:49:38;;;;;;;139.40;67.53;;;;;;;2.90;100.00;99792.03;2102158;28;20213;-75
2021/11/12 05:03:11;;;;;;;134.95;63.40;;;;;;;2.91;100.00;99801.53;2084800;28;20288;-75
2021/11/12 05:11:15;;;;;;;137.00;62.75;;;;;;;2.88;100.00;99805.44;2080928;28;20219;-76
2021/11/12 05:43:33;;;;;;;136.57;64.85;;;;;;;2.97;100.00;99816.44;2087292;28;20229;-76
2021/11/12 05:44:42;;;;;;;152.65;68.20;;;;;;;2.97;100.00;99821.72;2078807;28;20273;-75
2021/11/12 05:46:00;;;;;;;148.32;66.32;;;;;;;2.97;100.00;99821.72;2077785;28;20591;-75
2021/11/12 05:49:41;;;;;;;144.95;67.53;;;;;;;3.01;100.00;99828.13;2079622;28;20245;-75
2021/11/12 05:49:52;;;;;;;147.68;67.93;;;;;;;2.98;100.00;99821.50;2076412;28;20311;-75
2021/11/12 05:51:09;;;;;;;155.43;70.43;;;;;;;2.98;100.00;99818.06;2087598;28;20701;-75
2021/11/12 05:52:21;;;;;;;161.65;67.60;;;;;;;3.01;100.00;99818.41;2087716;28;20701;-75
2021/11/12 05:56:01;;;;;;;156.45;67.70;;;;;;;3.07;100.00;99822.75;2078345;28;20293;-75
2021/11/12 05:57:05;;;;;;;150.37;67.90;;;;;;;3.07;100.00;99830.69;2079137;28;20265;-75
2021/11/12 05:58:07;;;;;;;166.50;69.15;;;;;;;3.08;100.00;99824.38;2079901;28;20227;-76
2021/11/12 05:59:10;;;;;;;160.32;69.18;;;;;;;3.12;100.00;99837.88;2079585;28;20281;-74
2021/11/12 06:00:15;;;;;;;156.60;68.68;;;;;;;3.10;100.00;99824.94;2079107;28;20235;-75
2021/11/12 06:01:16;;;;;;;161.73;69.25;;;;;;;3.12;100.00;99824.69;2079130;28;20223;-76
2021/11/12 06:02:17;;;;;;;159.07;68.57;;;;;;;3.15;100.00;99834.81;2079950;28;20221;-75
2021/11/12 06:03:18;;;;;;;160.63;67.32;;;;;;;3.17;100.00;99827.47;2079686;28;20223;-75
2021/11/12 06:04:21;;;;;;;160.00;68.87;;;;;;;3.17;100.00;99822.19;2079854;28;20222;-75
2021/11/12 06:05:22;;;;;;;160.55;70.18;;;;;;;3.19;100.00;99814.06;2078848;28;20227;-75
2021/11/12 06:06:24;;;;;;;164.55;69.75;;;;;;;3.20;100.00;99820.94;2076782;28;20310;-75
2021/11/12 06:07:26;;;;;;;151.13;68.53;;;;;;;3.23;100.00;99826.56;2079639;28;20250;-75
2021/11/12 06:08:27;;;;;;;160.35;69.63;;;;;;;3.23;100.00;99826.56;2079721;28;20314;-75
2021/11/12 06:09:28;;;;;;;160.10;70.27;;;;;;;3.26;100.00;99820.81;2086733;28;20222;-75
2021/11/12 06:10:29;;;;;;;151.50;67.68;;;;;;;3.27;100.00;99821.63;2087291;28;20223;-75
2021/11/12 06:11:35;;;;;;;157.03;68.93;;;;;;;3.28;100.00;99824.03;2079662;28;20673;-76
2021/11/12 06:12:38;;;;;;;157.30;69.80;;;;;;;3.31;100.00;99825.44;2079534;28;20235;-75
2021/11/12 06:13:40;;;;;;;151.20;68.55;;;;;;;3.30;100.00;99829.91;2087390;28;20623;-75
2021/11/12 06:14:44;;;;;;;151.75;68.38;;;;;;;3.31;100.00;99834.13;2074005;28;20224;-75
2021/11/12 06:15:45;;;;;;;157.82;68.13;;;;;;;3.32;100.00;99834.94;2070831;28;20246;-75
2021/11/12 06:16:46;;;;;;;148.87;67.63;;;;;;;3.32;100.00;99829.66;2084967;28;20219;-76
2021/11/12 06:17:47;;;;;;;141.93;67.00;;;;;;;3.31;100.00;99826.22;2073053;28;20224;-75
2021/11/12 06:18:49;;;;;;;151.37;69.73;;;;;;;3.33;100.00;99831.25;2070877;28;20220;-75
2021/11/12 06:19:51;;;;;;;152.93;68.45;;;;;;;3.35;100.00;99829.19;2079571;28;20219;-75
2021/11/12 06:20:52;;;;;;;150.18;67.60;;;;;;;3.34;100.00;99825.75;2079112;28;20227;-73
2021/11/12 06:21:54;;;;;;;159.40;69.22;;;;;;;3.38;100.00;99826.88;2079514;28;20223;-74
2021/11/12 06:22:55;;;;;;;144.13;67.28;;;;;;;3.40;100.00;99837.22;2079487;28;20234;-74
2021/11/12 06:23:57;;;;;;;149.20;67.07;;;;;;;3.42;100.00;99831.72;2079470;28;20243;-75
2021/11/12 06:24:58;;;;;;;139.95;64.05;;;;;;;3.42;100.00;99827.25;2070548;28;20231;-75
2021/11/12 06:26:02;;;;;;;157.77;68.67;;;;;;;3.42;100.00;99826.44;2070604;28;20247;-75
2021/11/12 06:27:03;;;;;;;143.88;65.07;;;;;;;3.44;100.00;99829.66;2079393;28;20458;-75
2021/11/12 06:28:06;;;;;;;144.38;65.32;;;;;;;3.43;100.00;99826.22;2070428;28;20226;-74
2021/11/12 06:29:09;;;;;;;141.38;67.05;;;;;;;3.45;100.00;99825.97;2070306;28;20231;-75
2021/11/12 06:30:10;;;;;;;143.30;66.30;;;;;;;3.46;100.00;99836.28;2078953;28;20231;-74
2021/11/12 06:31:13;;;;;;;143.95;68.40;;;;;;;3.48;100.00;99833.44;2079360;28;20242;-74
2021/11/12 06:32:13;;;;;;;145.43;67.13;;;;;;;3.48;100.00;99828.97;2079463;28;20230;-75
2021/11/12 06:33:15;;;;;;;143.97;67.60;;;;;;;3.52;100.00;99834.59;2079523;28;20227;-74
2021/11/12 06:34:20;;;;;;;152.60;68.63;;;;;;;3.54;100.00;99843.06;2079393;28;20227;-75
2021/11/12 06:35:21;;;;;;;154.82;69.63;;;;;;;3.50;100.00;99840.09;2079496;28;20607;-75
2021/11/12 06:36:23;;;;;;;146.05;67.50;;;;;;;3.56;100.00;99841.00;2079144;28;20706;-74
2021/11/12 06:37:25;;;;;;;141.30;67.05;;;;;;;3.56;100.00;99841.81;2079442;28;20314;-75
2021/11/12 06:38:29;;;;;;;145.50;67.43;;;;;;;3.57;100.00;99842.63;2079444;28;20230;-75
2021/11/12 06:39:31;;;;;;;143.73;68.32;;;;;;;3.57;100.00;99847.91;2079195;28;20292;-75
2021/11/12 06:40:32;;;;;;;144.70;68.25;;;;;;;3.61;100.00;99849.03;2070588;28;20220;-75
2021/11/12 06:41:51;;;;;;;155.60;69.87;;;;;;;3.63;100.00;99852.22;2070412;28;20291;-75
2021/11/12 06:43:03;;;;;;;150.70;69.30;;;;;;;3.61;100.00;99847.19;2073998;28;20538;-74
2021/11/12 06:44:28;;;;;;;146.50;67.72;;;;;;;3.64;100.00;99848.56;2072097;28;20614;-75
2021/11/12 06:49:34;;;;;;;140.48;65.57;;;;;;;3.77;100.00;99843.03;2078330;28;20284;-75
2021/11/12 06:50:35;;;;;;;148.45;68.47;;;;;;;3.75;100.00;99845.13;2070963;28;20224;-75
2021/11/12 06:51:39;;;;;;;134.53;66.77;;;;;;;3.77;100.00;99840.41;2078504;28;20250;-76
2021/11/12 06:52:41;;;;;;;141.80;66.10;;;;;;;3.78;100.00;99836.72;2086377;28;20661;-75
2021/11/12 06:53:44;;;;;;;134.32;65.68;;;;;;;3.81;100.00;99843.38;2079484;28;20255;-75
2021/11/12 06:54:46;;;;;;;139.57;65.95;;;;;;;3.81;100.00;99836.25;2079275;28;20242;-76
2021/11/12 06:55:53;;;;;;;134.15;63.65;;;;;;;3.81;100.00;99833.63;2079452;28;20234;-75
2021/11/12 06:56:53;;;;;;;135.52;67.53;;;;;;;3.82;100.00;99831.78;2087166;28;20584;-75
2021/11/12 06:57:55;;;;;;;132.23;66.43;;;;;;;3.85;100.00;99837.41;2087557;28;20226;-75
2021/11/12 06:58:56;;;;;;;129.90;65.90;;;;;;;3.87;100.00;99839.81;2087467;28;20230;-76
2021/11/12 06:59:59;;;;;;;129.07;64.00;;;;;;;3.93;100.00;99841.53;2073869;28;20224;-75
2021/11/12 07:01:00;;;;;;;130.82;64.97;;;;;;;3.92;100.00;99835.47;2062341;28;20782;-75
2021/11/12 07:02:04;;;;;;;124.70;63.60;;;;;;;3.94;100.00;99832.56;2070368;28;20230;-75
2021/11/12 07:03:05;;;;;;;132.23;63.72;;;;;;;3.93;100.00;99831.78;2086654;28;20340;-75
2021/11/12 07:04:07;;;;;;;129.70;63.55;;;;;;;3.94;100.00;99836.00;2078397;28;20289;-75
2021/11/12 07:05:08;;;;;;;128.30;63.53;;;;;;;3.97;100.00;99834.75;2074082;28;20235;-75
2021/11/12 07:06:11;;;;;;;128.00;63.67;;;;;;;3.98;100.00;99836.34;2070142;28;20235;-75
2021/11/12 07:07:12;;;;;;;127.00;62.90;;;;;;;3.99;100.00;99835.31;2070665;28;20318;-75
2021/11/12 07:08:14;;;;;;;116.67;62.27;;;;;;;4.00;100.00;99831.66;2084060;28;20223;-75
2021/11/12 07:09:18;;;;;;;129.05;62.33;;;;;;;4.03;100.00;99835.66;2087425;28;20581;-75
2021/11/12 07:10:19;;;;;;;122.75;62.90;;;;;;;4.03;100.00;99840.94;2070167;28;20228;-75
2021/11/12 07:11:22;;;;;;;125.53;64.40;;;;;;;4.03;100.00;99831.19;2070529;28;20220;-75
2021/11/12 07:12:23;;;;;;;116.47;61.00;;;;;;;4.07;100.00;99834.13;2078792;28;20678;-75
2021/11/12 07:13:25;;;;;;;126.53;63.33;;;;;;;4.08;100.00;99835.75;2070298;28;20627;-75
2021/11/12 07:14:26;;;;;;;124.57;65.25;;;;;;;4.10;100.00;99831.06;2061931;28;20228;-75
2021/11/12 07:15:29;;;;;;;121.33;62.73;;;;;;;4.11;100.00;99833.44;2070421;28;20271;-75
2021/11/12 07:16:30;;;;;;;122.78;62.15;;;;;;;4.08;100.00;99823.34;2079014;28;20223;-75